createdAt,value
2024-05-09T00:00:44.343Z,101109.97
2024-05-09T00:03:12.063Z,101111.97
2024-05-09T00:05:45.600Z,101103.59
2024-05-09T00:08:12.637Z,101105.56
2024-05-09T00:10:40.801Z,101101.75
2024-05-09T00:13:09.050Z,101095.63
2024-05-09T00:15:36.508Z,101104.47
2024-05-09T00:18:04.790Z,101112.28
2024-05-09T00:20:38.270Z,101101.97
2024-05-09T00:23:12.315Z,101103.19
2024-05-09T00:25:40.533Z,101111.56
2024-05-09T00:28:07.176Z,101114.13
2024-05-09T00:30:36.209Z,101109.94
2024-05-09T00:33:06.249Z,101110.81
2024-05-09T00:35:34.203Z,101106.16
2024-05-09T00:38:01.235Z,101105.88
2024-05-09T00:40:40.564Z,101109.69
2024-05-09T00:43:09.927Z,101102.53
2024-05-09T00:45:36.662Z,101108.28
2024-05-09T00:48:07.131Z,101109.84
2024-05-09T00:50:37.876Z,101107.19
2024-05-09T00:53:07.758Z,101113.41
2024-05-09T00:55:35.783Z,101110.19
2024-05-09T00:58:03.160Z,101102.13
2024-05-09T01:00:37.808Z,101115.53
2024-05-09T01:03:07.504Z,101111.56
2024-05-09T01:05:35.399Z,101107.53
2024-05-09T01:08:03.157Z,101114.72
2024-05-09T01:10:34.568Z,101111.06
2024-05-09T01:13:03.830Z,101113.34
2024-05-09T01:15:30.640Z,101113.81
2024-05-09T01:17:58.328Z,101109.63
2024-05-09T01:20:36.561Z,101120.94
2024-05-09T01:23:09.557Z,101113.53
2024-05-09T01:25:36.851Z,101110.44
2024-05-09T01:28:03.650Z,101107.31
2024-05-09T01:30:34.904Z,101115.53
2024-05-09T01:33:05.258Z,101120.78
2024-05-09T01:35:33.022Z,101126.28
2024-05-09T01:37:59.701Z,101119.00
2024-05-09T01:40:36.226Z,101123.31
2024-05-09T01:43:05.764Z,101133.22
2024-05-09T01:45:32.488Z,101124.72
2024-05-09T01:47:59.309Z,101135.91
2024-05-09T01:50:37.156Z,101130.22
2024-05-09T01:53:07.772Z,101128.91
2024-05-09T01:55:34.780Z,101120.94
2024-05-09T01:58:01.427Z,101121.78
2024-05-09T02:00:37.980Z,101119.66
2024-05-09T02:03:15.554Z,101118.56
2024-05-09T02:05:45.578Z,101111.34
2024-05-09T02:08:15.072Z,101120.81
2024-05-09T02:10:42.966Z,101119.41
2024-05-09T02:13:09.808Z,101128.25
2024-05-09T02:15:36.522Z,101124.38
2024-05-09T02:18:03.457Z,101125.66
2024-05-09T02:20:35.939Z,101123.59
2024-05-09T02:23:05.116Z,101128.25
2024-05-09T02:25:32.316Z,101126.94
2024-05-09T02:27:59.093Z,101120.81
2024-05-09T02:30:35.792Z,101123.06
2024-05-09T02:33:07.121Z,101119.19
2024-05-09T02:35:34.233Z,101121.25
2024-05-09T02:38:01.082Z,101118.22
2024-05-09T02:40:35.815Z,101118.72
2024-05-09T02:43:05.780Z,101126.78
2024-05-09T02:45:32.612Z,101113.56
2024-05-09T02:47:59.461Z,101123.25
2024-05-09T02:50:34.149Z,101123.53
2024-05-09T02:53:05.545Z,101125.06
2024-05-09T02:55:32.435Z,101126.78
2024-05-09T02:57:59.198Z,101122.88
2024-05-09T03:00:34.663Z,101120.50
2024-05-09T03:03:08.528Z,101127.91
2024-05-09T03:05:36.968Z,101121.00
2024-05-09T03:08:04.395Z,101121.66
2024-05-09T03:10:36.081Z,101119.84
2024-05-09T03:13:12.946Z,101110.72
2024-05-09T03:15:41.036Z,101124.50
2024-05-09T03:18:08.002Z,101121.47
2024-05-09T03:20:36.192Z,101120.31
2024-05-09T03:23:05.268Z,101128.16
2024-05-09T03:25:32.394Z,101121.41
2024-05-09T03:27:59.544Z,101120.97
2024-05-09T03:30:38.214Z,101126.59
2024-05-09T03:33:13.862Z,101120.31
2024-05-09T03:35:41.884Z,101126.19
2024-05-09T03:38:08.965Z,101121.91
2024-05-09T03:40:36.228Z,101124.59
2024-05-09T03:43:03.086Z,101131.16
2024-05-09T03:45:29.738Z,101129.44
2024-05-09T03:47:56.565Z,101125.88
2024-05-09T03:50:30.081Z,101127.53
2024-05-09T03:53:01.727Z,101116.31
2024-05-09T03:55:28.575Z,101121.72
2024-05-09T03:57:55.531Z,101121.72
2024-05-09T04:00:31.057Z,101119.88
2024-05-09T04:03:06.065Z,101123.97
2024-05-09T04:05:34.681Z,101110.50
2024-05-09T04:08:01.633Z,101101.47
2024-05-09T04:10:33.280Z,101130.97
2024-05-09T04:13:02.035Z,101127.19
2024-05-09T04:15:28.935Z,101122.66
2024-05-09T04:17:56.147Z,101125.78
2024-05-09T04:20:33.900Z,101132.00
2024-05-09T04:23:06.994Z,101124.66
2024-05-09T04:25:34.406Z,101135.06
2024-05-09T04:28:01.123Z,101128.81
2024-05-09T04:30:36.474Z,101136.13
2024-05-09T04:33:08.479Z,101137.06
2024-05-09T04:35:37.212Z,101142.63
2024-05-09T04:38:04.702Z,101134.81
2024-05-09T04:40:34.992Z,101137.22
2024-05-09T04:43:04.533Z,101134.22
2024-05-09T04:45:31.434Z,101147.22
2024-05-09T04:47:58.588Z,101148.25
2024-05-09T04:50:35.365Z,101143.00
2024-05-09T04:53:05.993Z,101134.44
2024-05-09T04:55:33.337Z,101141.22
2024-05-09T04:58:00.190Z,101131.50
2024-05-09T05:00:34.729Z,101137.66
2024-05-09T05:03:10.552Z,101135.94
2024-05-09T05:05:42.411Z,101132.66
2024-05-09T05:08:13.842Z,101133.16
2024-05-09T05:10:41.662Z,101139.06
2024-05-09T05:13:21.879Z,101134.53
2024-05-09T05:15:52.064Z,101142.28
2024-05-09T05:18:19.312Z,101132.19
2024-05-09T05:20:46.398Z,101127.78
2024-05-09T05:23:15.517Z,101137.59
2024-05-09T05:25:42.849Z,101142.63
2024-05-09T05:28:09.900Z,101144.97
2024-05-09T05:30:41.022Z,101124.56
2024-05-09T05:33:11.267Z,101142.13
2024-05-09T05:35:38.027Z,101135.72
2024-05-09T05:38:06.089Z,101148.31
2024-05-09T05:40:36.960Z,101139.72
2024-05-09T05:43:09.076Z,101135.13
2024-05-09T05:45:36.312Z,101138.06
2024-05-09T05:48:06.067Z,101128.81
2024-05-09T05:50:36.771Z,101141.72
2024-05-09T05:53:09.739Z,101145.88
2024-05-09T05:55:39.865Z,101145.22
2024-05-09T05:58:10.725Z,101135.47
2024-05-09T06:00:39.933Z,101145.56
2024-05-09T06:03:09.277Z,101144.91
2024-05-09T06:05:40.326Z,101140.53
2024-05-09T06:08:08.024Z,101135.69
2024-05-09T06:10:38.953Z,101140.59
2024-05-09T06:13:08.938Z,101141.16
2024-05-09T06:15:35.705Z,101137.81
2024-05-09T06:18:06.115Z,101142.50
2024-05-09T06:20:36.496Z,101143.69
2024-05-09T06:23:09.643Z,101143.53
2024-05-09T06:25:37.107Z,101142.53
2024-05-09T06:28:04.136Z,101137.56
2024-05-09T06:30:38.700Z,101134.78
2024-05-09T06:33:10.456Z,101148.19
2024-05-09T06:35:38.800Z,101149.00
2024-05-09T06:38:06.470Z,101146.41
2024-05-09T06:40:37.925Z,101138.41
2024-05-09T06:43:18.195Z,101133.34
2024-05-09T06:45:48.437Z,101141.00
2024-05-09T06:48:21.611Z,101144.84
2024-05-09T06:50:49.793Z,101142.41
2024-05-09T06:53:17.704Z,101141.06
2024-05-09T06:55:44.475Z,101141.59
2024-05-09T06:58:11.407Z,101144.72
2024-05-09T07:00:40.549Z,101139.69
2024-05-09T07:03:10.975Z,101143.88
2024-05-09T07:05:39.100Z,101140.16
2024-05-09T07:08:06.829Z,101137.34
2024-05-09T07:10:35.922Z,101135.84
2024-05-09T07:13:07.609Z,101140.97
2024-05-09T07:15:34.247Z,101141.31
2024-05-09T07:18:01.167Z,101133.91
2024-05-09T07:20:34.159Z,101143.00
2024-05-09T07:23:03.036Z,101139.13
2024-05-09T07:25:30.037Z,101133.56
2024-05-09T07:27:56.860Z,101127.19
2024-05-09T07:30:32.508Z,101122.09
2024-05-09T07:33:01.509Z,101121.47
2024-05-09T07:35:28.940Z,101121.91
2024-05-09T07:37:55.761Z,101116.09
2024-05-09T07:40:32.308Z,101122.31
2024-05-09T07:43:07.189Z,101126.00
2024-05-09T07:52:23.667Z,101123.53
2024-05-09T07:53:38.768Z,101128.16
2024-05-09T07:56:09.115Z,101123.09
2024-05-09T07:58:36.474Z,101122.31
2024-05-09T08:01:03.189Z,101119.78
2024-05-09T08:03:30.312Z,101118.56
2024-05-09T08:05:57.205Z,101125.16
2024-05-09T08:08:23.986Z,101119.09
2024-05-09T08:10:51.059Z,101128.34
2024-05-09T08:13:17.858Z,101117.47
2024-05-09T08:15:44.786Z,101118.72
2024-05-09T08:18:11.799Z,101111.59
2024-05-09T08:20:39.455Z,101113.63
2024-05-09T08:23:06.363Z,101115.84
2024-05-09T08:25:33.201Z,101111.94
2024-05-09T08:27:59.973Z,101117.00
2024-05-09T08:30:33.432Z,101112.72
2024-05-09T08:33:04.979Z,101108.34
2024-05-09T08:35:32.656Z,101111.78
2024-05-09T08:37:59.410Z,101109.25
2024-05-09T08:40:33.719Z,101110.16
2024-05-09T08:43:10.444Z,101107.97
2024-05-09T08:45:43.546Z,101098.22
2024-05-09T08:48:12.779Z,101095.28
2024-05-09T08:50:42.572Z,101107.25
2024-05-09T08:53:09.648Z,101095.88
2024-05-09T08:55:41.577Z,101097.59
2024-05-09T08:58:15.087Z,101096.06
2024-05-09T09:00:43.783Z,101092.97
2024-05-09T09:03:15.238Z,101089.50
2024-05-09T09:05:51.814Z,101090.53
2024-05-09T09:08:18.845Z,101088.16
2024-05-09T09:10:47.663Z,101087.13
2024-05-09T09:13:14.653Z,101078.06
2024-05-09T09:15:50.697Z,101079.88
2024-05-09T09:18:18.505Z,101080.50
2024-05-09T09:20:45.709Z,101083.75
2024-05-09T09:23:12.633Z,101092.16
2024-05-09T09:25:40.476Z,101080.50
2024-05-09T09:28:08.150Z,101078.44
2024-05-09T09:30:37.841Z,101083.03
2024-05-09T09:33:11.587Z,101084.03
2024-05-09T09:35:40.766Z,101085.69
2024-05-09T09:38:08.465Z,101081.88
2024-05-09T09:40:42.864Z,101076.59
2024-05-09T09:43:20.558Z,101080.31
2024-05-09T09:45:51.966Z,101070.75
2024-05-09T09:48:21.060Z,101074.72
2024-05-09T09:50:48.787Z,101061.66
2024-05-09T09:53:16.480Z,101060.94
2024-05-09T09:55:43.526Z,101055.38
2024-05-09T09:58:13.521Z,101062.81
2024-05-09T10:00:42.208Z,101070.06
2024-05-09T10:03:09.276Z,101067.81
2024-05-09T10:05:36.916Z,101068.78
2024-05-09T10:08:06.642Z,101056.84
2024-05-09T10:10:35.402Z,101069.06
2024-05-09T10:13:06.361Z,101057.22
2024-05-09T10:15:48.054Z,101068.94
2024-05-09T10:18:15.370Z,101060.72
2024-05-09T10:20:43.247Z,101060.84
2024-05-09T10:23:23.826Z,101061.94
2024-05-09T10:26:05.385Z,101050.75
2024-05-09T10:28:35.102Z,101067.41
2024-05-09T10:31:10.539Z,101058.69
2024-05-09T10:33:38.995Z,101057.13
2024-05-09T10:36:21.893Z,101055.84
2024-05-09T10:38:49.355Z,101050.91
2024-05-09T10:41:20.508Z,101047.56
2024-05-09T10:43:48.235Z,101049.56
2024-05-09T10:46:15.386Z,101053.59
2024-05-09T10:48:44.426Z,101049.56
2024-05-09T10:51:11.590Z,101043.72
2024-05-09T10:53:42.586Z,101039.16
2024-05-09T10:56:09.756Z,101040.13
2024-05-09T10:58:36.853Z,101050.47
2024-05-09T11:01:06.988Z,101041.78
2024-05-09T11:03:35.157Z,101031.88
2024-05-09T11:06:02.488Z,101028.38
2024-05-09T11:08:31.672Z,101017.81
2024-05-09T11:10:59.595Z,101019.94
2024-05-09T11:13:30.743Z,101028.63
2024-05-09T11:15:58.380Z,101021.00
2024-05-09T11:18:28.120Z,101015.97
2024-05-09T11:20:57.542Z,101019.97
2024-05-09T11:23:30.478Z,101011.94
2024-05-09T11:25:58.938Z,101013.84
2024-05-09T11:28:28.694Z,101007.06
2024-05-09T11:31:08.010Z,101005.44
2024-05-09T11:33:39.701Z,101002.63
2024-05-09T11:36:07.768Z,100995.56
2024-05-09T11:38:34.409Z,100993.84
2024-05-09T11:41:02.164Z,100992.97
2024-05-09T11:43:28.891Z,100993.75
2024-05-09T11:45:57.680Z,100995.03
2024-05-09T11:48:25.519Z,100988.66
2024-05-09T11:50:54.327Z,100986.28
2024-05-09T11:53:21.033Z,100988.25
2024-05-09T11:55:47.658Z,100979.59
2024-05-09T11:58:17.561Z,100980.47
2024-05-09T12:00:45.255Z,100972.91
2024-05-09T12:03:12.043Z,100972.88
2024-05-09T12:05:38.875Z,100967.22
2024-05-09T12:08:06.344Z,100964.06
2024-05-09T12:10:35.507Z,100959.06
2024-05-09T12:13:05.513Z,100960.38
2024-05-09T12:15:36.265Z,100963.63
2024-05-09T12:18:04.536Z,100957.00
2024-05-09T12:20:37.050Z,100944.03
2024-05-09T12:23:06.319Z,100956.63
2024-05-09T12:25:33.146Z,100958.59
2024-05-09T12:28:00.134Z,100972.31
2024-05-09T12:30:35.472Z,100956.47
2024-05-09T12:33:06.174Z,100956.47
2024-05-09T12:35:33.197Z,100957.03
2024-05-09T12:38:00.112Z,100942.56
2024-05-09T12:40:35.123Z,100942.41
2024-05-09T12:43:06.087Z,100946.75
2024-05-09T12:45:33.188Z,100939.69
2024-05-09T12:48:00.120Z,100944.16
2024-05-09T12:50:32.458Z,100945.47
2024-05-09T12:53:02.101Z,100945.34
2024-05-09T12:55:33.979Z,100944.41
2024-05-09T12:58:08.269Z,100929.97
2024-05-09T13:00:35.744Z,100940.66
2024-05-09T13:03:03.025Z,100927.56
2024-05-09T13:05:30.252Z,100925.88
2024-05-09T13:07:57.416Z,100924.69
2024-05-09T13:10:31.622Z,100920.81
2024-05-09T13:13:01.220Z,100916.34
2024-05-09T13:15:29.396Z,100913.06
2024-05-09T13:18:00.308Z,100913.50
2024-05-09T13:20:33.620Z,100905.03
2024-05-09T13:23:04.057Z,100913.41
2024-05-09T13:25:30.914Z,100895.31
2024-05-09T13:27:58.252Z,100902.19
2024-05-09T13:30:33.791Z,100899.00
2024-05-09T13:33:06.464Z,100908.72
2024-05-09T13:35:35.430Z,100900.03
2024-05-09T13:38:03.871Z,100902.16
2024-05-09T13:40:34.510Z,100897.63
2024-05-09T13:43:04.515Z,100892.97
2024-05-09T13:45:31.672Z,100889.31
2024-05-09T13:47:58.808Z,100883.84
2024-05-09T13:50:33.281Z,100884.91
2024-05-09T13:53:03.132Z,100875.81
2024-05-09T13:55:29.891Z,100877.06
2024-05-09T13:57:56.906Z,100873.28
2024-05-09T14:00:37.854Z,100873.41
2024-05-09T14:03:10.566Z,100862.72
2024-05-09T14:05:37.560Z,100860.72
2024-05-09T14:08:04.823Z,100851.25
2024-05-09T14:10:32.469Z,100847.41
2024-05-09T14:13:00.370Z,100850.91
2024-05-09T14:15:27.210Z,100846.56
2024-05-09T14:17:55.016Z,100852.84
2024-05-09T14:22:51.339Z,100848.56
2024-05-09T14:25:18.107Z,100846.69
2024-05-09T14:27:44.936Z,100844.28
2024-05-09T14:30:18.392Z,100838.03
2024-05-09T14:32:52.953Z,100838.50
2024-05-09T14:35:19.893Z,100837.03
2024-05-09T14:37:46.700Z,100825.41
2024-05-09T14:40:30.372Z,100828.72
2024-05-09T14:43:03.233Z,100824.81
2024-05-09T14:45:30.182Z,100825.22
2024-05-09T14:47:57.444Z,100825.00
2024-05-09T14:50:34.425Z,100828.19
2024-05-09T14:53:04.393Z,100813.06
2024-05-09T14:55:31.286Z,100815.22
2024-05-09T14:57:58.076Z,100821.78
2024-05-09T15:00:29.036Z,100807.22
2024-05-09T15:03:00.562Z,100810.38
2024-05-09T15:05:27.533Z,100806.75
2024-05-09T15:07:54.368Z,100802.94
2024-05-09T15:10:27.517Z,100795.63
2024-05-09T15:13:01.693Z,100796.56
2024-05-09T15:15:28.488Z,100798.31
2024-05-09T15:17:55.706Z,100801.50
2024-05-09T15:20:31.218Z,100796.41
2024-05-09T15:23:02.792Z,100792.13
2024-05-09T15:25:29.724Z,100782.00
2024-05-09T15:27:56.702Z,100794.03
2024-05-09T15:30:30.762Z,100793.81
2024-05-09T15:33:00.364Z,100792.81
2024-05-09T15:35:27.406Z,100795.06
2024-05-09T15:37:54.322Z,100784.25
2024-05-09T15:40:26.710Z,100782.34
2024-05-09T15:43:02.771Z,100773.81
2024-05-09T15:45:29.865Z,100783.66
2024-05-09T15:47:57.772Z,100773.63
2024-05-09T15:50:36.414Z,100768.34
2024-05-09T15:53:07.732Z,100771.47
2024-05-09T15:55:35.231Z,100757.75
2024-05-09T15:58:03.147Z,100761.41
2024-05-09T16:00:37.530Z,100760.75
2024-05-09T16:03:08.138Z,100759.53
2024-05-09T16:05:34.977Z,100755.47
2024-05-09T16:08:02.383Z,100756.75
2024-05-09T16:10:32.859Z,100753.78
2024-05-09T16:13:01.586Z,100766.31
2024-05-09T16:15:28.655Z,100759.22
2024-05-09T16:17:55.539Z,100750.53
2024-05-09T16:20:34.013Z,100746.22
2024-05-09T16:23:06.372Z,100745.22
2024-05-09T16:25:33.198Z,100749.53
2024-05-09T16:28:00.098Z,100753.78
2024-05-09T16:30:33.934Z,100746.97
2024-05-09T16:33:05.928Z,100752.91
2024-05-09T16:35:34.400Z,100742.69
2024-05-09T16:38:03.727Z,100746.53
2024-05-09T16:40:37.714Z,100743.66
2024-05-09T16:43:07.905Z,100749.50
2024-05-09T16:45:35.174Z,100742.91
2024-05-09T16:48:02.540Z,100743.94
2024-05-09T16:50:34.076Z,100742.34
2024-05-09T16:53:03.561Z,100736.66
2024-05-09T16:55:30.666Z,100740.91
2024-05-09T16:57:58.118Z,100740.97
2024-05-09T17:00:35.494Z,100746.69
2024-05-09T17:03:09.106Z,100741.97
2024-05-09T17:05:36.645Z,100744.19
2024-05-09T17:08:03.948Z,100746.59
2024-05-09T17:10:33.746Z,100747.38
2024-05-09T17:13:03.262Z,100746.84
2024-05-09T17:15:31.922Z,100749.00
2024-05-09T17:17:58.819Z,100749.13
2024-05-09T17:20:32.228Z,100752.88
2024-05-09T17:23:02.743Z,100753.16
2024-05-09T17:25:29.676Z,100752.94
2024-05-09T17:27:57.011Z,100743.44
2024-05-09T17:30:32.064Z,100751.97
2024-05-09T17:33:04.007Z,100751.97
2024-05-09T17:35:31.808Z,100751.50
2024-05-09T17:37:59.666Z,100741.56
2024-05-09T17:40:33.112Z,100747.00
2024-05-09T17:43:03.315Z,100743.91
2024-05-09T17:45:30.714Z,100743.09
2024-05-09T17:47:58.163Z,100752.31
2024-05-09T17:50:31.412Z,100744.78
2024-05-09T17:53:02.315Z,100750.47
2024-05-09T17:55:29.207Z,100747.13
2024-05-09T17:57:56.071Z,100752.47
2024-05-09T18:00:33.154Z,100754.44
2024-05-09T18:03:06.231Z,100748.75
2024-05-09T18:05:35.047Z,100750.91
2024-05-09T18:08:02.101Z,100748.41
2024-05-09T18:10:35.426Z,100752.19
2024-05-09T18:13:06.139Z,100750.88
2024-05-09T18:15:33.646Z,100759.78
2024-05-09T18:18:01.764Z,100759.78
2024-05-09T18:20:37.754Z,100758.78
2024-05-09T18:23:10.614Z,100769.19
2024-05-09T18:25:37.456Z,100769.19
2024-05-09T18:28:04.660Z,100773.81
2024-05-09T18:30:34.603Z,100777.56
2024-05-09T18:33:05.099Z,100774.31
2024-05-09T18:35:33.144Z,100777.72
2024-05-09T18:37:59.949Z,100776.84
2024-05-09T18:40:33.727Z,100779.94
2024-05-09T18:43:04.894Z,100781.78
2024-05-09T18:45:32.894Z,100791.00
2024-05-09T18:47:59.717Z,100785.00
2024-05-09T18:50:34.859Z,100780.03
2024-05-09T18:53:08.475Z,100788.84
2024-05-09T18:55:35.439Z,100787.09
2024-05-09T18:58:03.093Z,100788.25
2024-05-09T19:00:35.677Z,100791.09
2024-05-09T19:03:09.334Z,100794.84
2024-05-09T19:05:39.016Z,100791.38
2024-05-09T19:08:07.317Z,100787.75
2024-05-09T19:10:35.504Z,100783.44
2024-05-09T19:13:08.155Z,100779.44
2024-05-09T19:15:38.776Z,100787.97
2024-05-09T19:18:06.548Z,100793.41
2024-05-09T19:20:35.090Z,100786.91
2024-05-09T19:23:03.542Z,100784.34
2024-05-09T19:25:30.753Z,100780.09
2024-05-09T19:27:57.585Z,100782.69
2024-05-09T19:30:32.968Z,100778.59
2024-05-09T19:33:06.144Z,100788.97
2024-05-09T19:35:33.203Z,100787.78
2024-05-09T19:38:00.151Z,100788.97
2024-05-09T19:40:31.238Z,100774.44
2024-05-09T19:43:00.186Z,100784.13
2024-05-09T19:45:27.076Z,100780.41
2024-05-09T19:47:53.881Z,100785.47
2024-05-09T19:50:27.064Z,100785.41
2024-05-09T19:53:03.020Z,100776.94
2024-05-09T19:55:29.799Z,100783.41
2024-05-09T19:57:56.944Z,100786.25
2024-05-09T20:00:32.444Z,100779.53
2024-05-09T20:03:03.117Z,100782.38
2024-05-09T20:05:33.300Z,100784.81
2024-05-09T20:08:00.164Z,100792.38
2024-05-09T20:10:31.975Z,100787.53
2024-05-09T20:13:00.980Z,100795.69
2024-05-09T20:15:27.762Z,100797.50
2024-05-09T20:17:55.102Z,100797.97
2024-05-09T20:20:32.464Z,100792.13
2024-05-09T20:23:04.275Z,100787.22
2024-05-09T20:25:30.907Z,100793.69
2024-05-09T20:27:57.744Z,100796.47
2024-05-09T20:30:31.290Z,100792.13
2024-05-09T20:33:01.321Z,100790.41
2024-05-09T20:35:32.020Z,100791.63
2024-05-09T20:37:59.368Z,100795.16
2024-05-09T20:40:32.483Z,100788.31
2024-05-09T20:43:02.810Z,100788.72
2024-05-09T20:45:29.838Z,100792.03
2024-05-09T20:47:57.350Z,100788.16
2024-05-09T20:50:35.073Z,100788.19
2024-05-09T20:53:06.138Z,100795.00
2024-05-09T20:55:32.790Z,100785.09
2024-05-09T20:57:59.469Z,100779.22
2024-05-09T21:00:35.139Z,100789.03
2024-05-09T21:03:07.202Z,100786.34
2024-05-09T21:05:34.995Z,100783.06
2024-05-09T21:08:02.225Z,100781.50
2024-05-09T21:10:32.834Z,100789.75
2024-05-09T21:13:02.096Z,100780.44
2024-05-09T21:15:29.483Z,100776.75
2024-05-09T21:17:56.331Z,100788.91
2024-05-09T21:20:28.897Z,100779.78
2024-05-09T21:22:58.468Z,100783.66
2024-05-09T21:25:25.448Z,100781.19
2024-05-09T21:27:52.848Z,100768.84
2024-05-09T21:30:31.546Z,100776.13
2024-05-09T21:33:07.868Z,100780.28
2024-05-09T21:35:34.736Z,100771.28
2024-05-09T21:38:01.483Z,100768.97
2024-05-09T21:40:34.170Z,100770.28
2024-05-09T21:43:03.490Z,100773.28
2024-05-09T21:45:30.505Z,100775.44
2024-05-09T21:47:57.502Z,100776.44
2024-05-09T21:50:32.163Z,100774.06
2024-05-09T21:53:06.120Z,100776.91
2024-05-09T21:55:32.860Z,100780.31
2024-05-09T21:57:59.600Z,100775.63
2024-05-09T22:00:34.523Z,100785.19
2024-05-09T22:03:04.917Z,100771.50
2024-05-09T22:05:32.015Z,100781.16
2024-05-09T22:07:58.932Z,100776.63
2024-05-09T22:10:30.697Z,100780.16
2024-05-09T22:13:01.271Z,100779.06
2024-05-09T22:15:28.052Z,100783.75
2024-05-09T22:17:57.299Z,100771.22
2024-05-09T22:20:34.256Z,100774.38
2024-05-09T22:23:04.887Z,100782.47
2024-05-09T22:25:32.514Z,100777.19
2024-05-09T22:28:00.684Z,100775.19
2024-05-09T22:30:34.827Z,100779.34
2024-05-09T22:33:06.057Z,100766.63
2024-05-09T22:35:33.111Z,100768.63
2024-05-09T22:37:59.869Z,100758.06
2024-05-09T22:40:38.208Z,100768.34
2024-05-09T22:43:13.167Z,100767.94
2024-05-09T22:45:40.254Z,100756.53
2024-05-09T22:48:08.447Z,100773.06
2024-05-09T22:50:35.424Z,100774.63
2024-05-09T22:53:02.252Z,100762.38
2024-05-09T22:55:29.186Z,100761.78
2024-05-09T22:57:56.224Z,100763.22
2024-05-09T23:00:30.997Z,100771.66
2024-05-09T23:03:00.867Z,100764.06
2024-05-09T23:05:28.399Z,100768.94
2024-05-09T23:07:55.215Z,100749.94
2024-05-09T23:10:28.429Z,100754.09
2024-05-09T23:13:01.731Z,100750.25
2024-05-09T23:15:28.793Z,100761.34
2024-05-09T23:17:55.572Z,100754.53
2024-05-09T23:20:33.096Z,100753.38
2024-05-09T23:23:04.892Z,100752.38
2024-05-09T23:25:31.587Z,100745.69
2024-05-09T23:27:58.390Z,100748.38
2024-05-09T23:32:54.921Z,100740.13
2024-05-09T23:35:21.673Z,100739.69
2024-05-09T23:37:48.434Z,100741.69
2024-05-09T23:40:18.802Z,100750.06
2024-05-09T23:42:49.448Z,100747.81
2024-05-09T23:45:16.260Z,100740.84
2024-05-09T23:47:43.209Z,100746.66
2024-05-09T23:50:16.757Z,100742.50
2024-05-09T23:52:50.086Z,100735.22
2024-05-09T23:55:16.819Z,100732.81
2024-05-09T23:57:43.458Z,100732.25
